Ama, Louisiana
Current Conditions -  °F | °C
As of 10:53 AM on Monday 24 Nov 2014 (Local Time) from KMSY Reporting Station
Broken Clouds Broken Clouds  
Wind Chill: 68°   Ceiling: 25000
Heat Index: 68°   Visibility: 10mi
Dew Point: 55°   Wind: 15mph
Humidity: 63%   Direction: 330°NNW
Pressure: 29.9"   Gusts: 22mph
Location:  29.95°N, 90.3°W
Report Text: KMSY 241653Z 33013G19KT 10SM BKN250 20/13 A2990 RMK AO2 SLP129 T02000128
Loading
Personal Weather Stations






























Interactive Weather Map New forecast layout! Learn more

10-Day Weather Forecast

Advertisements
Track Severe Weather on mobile